Meteo Giornale » Osservazioni meteo Messico » Mexico City-Licenci

ore: 20:25 - Osservazioni Meteo Mexico City-Licenci
Lat. 19° 26' N Lon. 99° 6' W Alt. 2238 metri s.l.m.

nuvoloso_temporali America/Mexico_City

15 °C

Temporale con Pioggia Debole

Temp. 24 Ore

12 °C

24 °C

Est

14.8 Km/h

Dew point 12 °C

Umidità 82 %

Visibilità  6 Km

Il sole sorge alle ore 07:09

Il sole tramonta alle ore 20:16

Data e Ora Cielo e Fenomeni T °C DP °C Um. % Pres. hPa Vis. km Vento km/h
Oggi h: 20:25 nuvoloso_temporali Temporale con Pioggia Debole 15 12 82 1027 6 E 14.8
Oggi h: 20:13 coperto_pioggia Pioggia Debole 16 10 67 1026 8 E/NE 7.4
Oggi h: 19:51 nuvoloso_temporali Temporale con Pioggia Debole 16 11 72 1026 8 E 35.2
Oggi h: 19:42 coperto_temporali Temporale 18 8 51 1026 13 NE 29.6
Oggi h: 19:35 nuvoloso_temporali Temporale nelle Vicinanze 19 7 45 1026 13 N 14.8
Oggi h: 18:47 coperto Coperto 19 8 48 1025 13 NO 20.3
Oggi h: 18:23 coperto Coperto 19 9 52 1025 11 O/NO 24
Oggi h: 18:05 nuvoloso_temporali Temporale nelle Vicinanze 21 7 40 1025 11 NO 27.8
Oggi h: 17:46 nuvoloso_temporali Temporale nelle Vicinanze 21 5 35 1024 11 O/SO 22.2
Oggi h: 17:42 nuvoloso_temporali Temporale nelle Vicinanze 21 5 35 1024 10 SO 27.8
Oggi h: 16:51 molto_nuvoloso Molto Nuvoloso 22 4 30 1025 13 S 14.8
Oggi h: 16:49 molto_nuvoloso Molto Nuvoloso 22 3 28 1025 13 S/SO 18.5
Oggi h: 16:06 molto_nuvoloso Molto Nuvoloso 24 6 31 1024 13 S/SE 29.6
Oggi h: 15:47 molto_nuvoloso Molto Nuvoloso 24 7 33 1025 11 E/NE 11.1
Oggi h: 14:40 nuvoloso Nuvoloso 24 7 33 1026 11 N/NE 11.1
Oggi h: 13:43 poco_nuvoloso Poco Nuvoloso 23 7 35 1026 11 N 5.5
Oggi h: 12:48 poco_nuvoloso Poco Nuvoloso 22 7 37 1027 11 N 3.7
Oggi h: 12:19 sereno Sereno 22 9 43 1028 10 N 3.7
Oggi h: 11:41 sereno Sereno 20 9 49 1028 10 N 5.5
Oggi h: 10:52 sereno Sereno 19 9 52 1028 10 SE 9.3
Oggi h: 09:46 sereno Sereno 16 10 67 1028 10 E 7.4
Oggi h: 08:44 poco_nuvoloso Poco Nuvoloso 14 10 76 1028 10 E 11.1
Oggi h: 07:44 nuvoloso Nuvoloso 14 10 76 1028 13 N 0
Oggi h: 06:47 nuvoloso Nuvoloso 12 9 81 1027 10 E/NE 7.4
Oggi h: 05:45 poco_nuvoloso Poco Nuvoloso 13 10 81 1027 19 E/NE 7.4
Oggi h: 04:45 poco_nuvoloso Poco Nuvoloso 13 9 76 1027 19 N 0
Oggi h: 03:45 nuvoloso Nuvoloso 14 10 76 1027 19 N 0
Oggi h: 02:42 poco_nuvoloso Poco Nuvoloso 15 10 72 1028 10 N 3.7
Oggi h: 01:42 nuvoloso Nuvoloso 15 10 72 1028 10 E/NE 11.1
Oggi h: 00:45 nuvoloso Nuvoloso 15 10 72 1028 19 E/NE 14.8
Oggi h: 00:35 nuvoloso Nuvoloso 16 9 63 1028 19 E/NE 14.8
Ieri h: 23:43 nuvoloso Nuvoloso 18 8 51 1028 19 NO 7.4
Ieri h: 22:45 molto_nuvoloso Molto Nuvoloso 18 8 51 1028 19 O 9.3
Ieri h: 21:48 molto_nuvoloso Molto Nuvoloso 17 9 59 1028 19 SO 13
Ieri h: 20:45 coperto_pioggia Pioggia nelle Vicinanze 17 9 59 1027 13 SE 13